createdAt,value
2018-02-06T00:00:42.572Z,-1.25
2018-02-06T00:03:12.632Z,-1.29
2018-02-06T00:05:41.927Z,-1.31
2018-02-06T00:08:11.409Z,-1.30
2018-02-06T00:10:41.476Z,-1.32
2018-02-06T00:13:10.833Z,-1.28
2018-02-06T00:15:41.013Z,-1.31
2018-02-06T00:18:10.263Z,-1.29
2018-02-06T00:20:39.504Z,-1.32
2018-02-06T00:23:10.687Z,-1.28
2018-02-06T00:25:40.827Z,-1.30
2018-02-06T00:28:10.106Z,-1.29
2018-02-06T00:30:40.087Z,-1.28
2018-02-06T00:33:09.332Z,-1.28
2018-02-06T00:35:39.392Z,-1.35
2018-02-06T00:38:08.623Z,-1.28
2018-02-06T00:40:37.869Z,-1.30
2018-02-06T00:43:07.060Z,-1.34
2018-02-06T00:45:36.301Z,-1.37
2018-02-06T00:48:05.510Z,-1.36
2018-02-06T00:50:34.950Z,-1.35
2018-02-06T00:53:04.282Z,-1.41
2018-02-06T00:55:33.551Z,-1.42
2018-02-06T00:58:02.802Z,-1.47
2018-02-06T01:00:32.076Z,-1.45
2018-02-06T01:03:01.317Z,-1.45
2018-02-06T01:05:30.574Z,-1.44
2018-02-06T01:07:59.775Z,-1.45
2018-02-06T01:10:29.043Z,-1.44
2018-02-06T01:12:58.296Z,-1.48
2018-02-06T01:15:29.143Z,-1.52
2018-02-06T01:17:58.379Z,-1.58
2018-02-06T01:20:27.671Z,-1.59
2018-02-06T01:22:56.913Z,-1.61
2018-02-06T01:25:26.139Z,-1.67
2018-02-06T01:27:56.149Z,-1.72
2018-02-06T01:30:25.392Z,-1.76
2018-02-06T01:32:54.640Z,-1.74
2018-02-06T01:35:25.369Z,-1.74
2018-02-06T01:37:54.664Z,-1.74
2018-02-06T01:40:23.911Z,-1.75
2018-02-06T01:42:53.912Z,-1.80
2018-02-06T01:45:23.943Z,-1.81
2018-02-06T01:47:53.941Z,-1.88
2018-02-06T01:50:23.947Z,-1.86
2018-02-06T01:52:53.355Z,-1.96
2018-02-06T01:55:22.658Z,-1.98
2018-02-06T01:57:52.653Z,-2.02
2018-02-06T02:00:22.839Z,-2.05
2018-02-06T02:02:52.085Z,-2.04
2018-02-06T02:05:21.424Z,-2.04
2018-02-06T02:07:50.659Z,-2.09
2018-02-06T02:10:19.947Z,-2.10
2018-02-06T02:12:49.177Z,-2.09
2018-02-06T02:15:18.599Z,-2.12
2018-02-06T02:17:47.883Z,-2.13
2018-02-06T02:20:17.921Z,-2.16
2018-02-06T02:22:47.159Z,-2.16
2018-02-06T02:25:16.403Z,-2.18
2018-02-06T02:27:46.427Z,-2.13
2018-02-06T02:30:15.689Z,-2.17
2018-02-06T02:32:44.915Z,-2.18
2018-02-06T02:35:15.043Z,-2.17
2018-02-06T02:37:44.267Z,-2.21
2018-02-06T02:40:13.521Z,-2.24
2018-02-06T04:39:53.603Z,-2.72
2018-02-06T04:42:22.833Z,-2.74
2018-02-06T04:44:53.032Z,-2.72
2018-02-06T04:47:23.060Z,-2.73
2018-02-06T04:49:53.053Z,-2.78
2018-02-06T04:52:22.303Z,-2.81
2018-02-06T04:54:51.597Z,-2.80
2018-02-06T04:57:20.900Z,-2.81
2018-02-06T04:59:50.197Z,-2.79
2018-02-06T05:02:19.463Z,-2.79
2018-02-06T05:04:49.461Z,-2.76
2018-02-06T05:07:18.702Z,-2.78
2018-02-06T05:09:47.974Z,-2.74
2018-02-06T05:12:17.237Z,-2.74
2018-02-06T05:14:46.533Z,-2.71
2018-02-06T05:17:15.776Z,-2.69
2018-02-06T05:19:44.999Z,-2.69
2018-02-06T05:22:15.041Z,-2.71
2018-02-06T05:24:44.311Z,-2.69
2018-02-06T05:27:13.502Z,-2.68
2018-02-06T05:29:43.529Z,-2.69
2018-02-06T05:32:12.749Z,-2.68
2018-02-06T05:34:42.050Z,-2.72
2018-02-06T05:37:11.218Z,-2.72
2018-02-06T05:39:40.455Z,-2.70
2018-02-06T05:42:09.678Z,-2.71
2018-02-06T05:44:39.732Z,-2.70
2018-02-06T05:47:08.962Z,-2.68
2018-02-06T05:49:38.234Z,-2.68
2018-02-06T05:52:08.062Z,-2.64
2018-02-06T05:54:37.366Z,-2.65
2018-02-06T05:57:06.662Z,-2.66
2018-02-06T05:59:35.897Z,-2.64
2018-02-06T06:02:05.369Z,-2.63
2018-02-06T06:04:34.570Z,-2.65
2018-02-06T06:07:03.848Z,-2.62
2018-02-06T06:09:33.066Z,-2.62
2018-02-06T06:12:02.410Z,-2.67
2018-02-06T06:14:31.640Z,-2.69
2018-02-06T06:17:00.910Z,-2.68
2018-02-06T06:19:30.148Z,-2.68
2018-02-06T06:21:59.353Z,-2.69
2018-02-06T06:24:28.734Z,-2.68
2018-02-06T06:26:57.968Z,-2.68
2018-02-06T06:29:27.177Z,-2.69
2018-02-06T06:31:56.521Z,-2.71
2018-02-06T06:34:25.748Z,-2.70
2018-02-06T06:36:55.067Z,-2.69
2018-02-06T06:39:24.354Z,-2.72
2018-02-06T06:41:53.582Z,-2.73
2018-02-06T06:44:22.784Z,-2.71
2018-02-06T06:46:52.027Z,-2.71
2018-02-06T06:49:22.142Z,-2.73
2018-02-06T06:51:52.091Z,-2.71
2018-02-06T06:54:21.318Z,-2.71
2018-02-06T06:56:50.535Z,-2.74
2018-02-06T06:59:20.638Z,-2.76
2018-02-06T07:01:52.310Z,-2.76
2018-02-06T07:04:24.480Z,-2.75
2018-02-06T07:06:53.839Z,-2.76
2018-02-06T07:09:23.051Z,-2.73
2018-02-06T07:11:52.290Z,-2.76
2018-02-06T07:14:21.693Z,-2.74
2018-02-06T07:16:50.918Z,-2.71
2018-02-06T07:19:20.160Z,-2.74
2018-02-06T07:21:50.158Z,-2.72
2018-02-06T07:24:19.422Z,-2.70
2018-02-06T07:26:48.626Z,-2.74
2018-02-06T07:29:17.858Z,-2.74
2018-02-06T07:31:47.080Z,-2.76
2018-02-06T07:34:16.404Z,-2.75
2018-02-06T07:36:45.604Z,-2.71
2018-02-06T07:39:14.834Z,-2.72
2018-02-06T07:41:44.069Z,-2.72
2018-02-06T07:44:14.043Z,-2.73
2018-02-06T07:46:43.334Z,-2.72
2018-02-06T07:49:12.546Z,-2.68
2018-02-06T07:51:41.905Z,-2.68
2018-02-06T07:54:11.146Z,-2.68
2018-02-06T07:56:40.462Z,-2.69
2018-02-06T07:59:09.683Z,-2.72
2018-02-06T08:01:38.997Z,-2.70
2018-02-06T08:04:08.228Z,-2.68
2018-02-06T08:06:37.451Z,-2.65
2018-02-06T08:09:06.698Z,-2.65
2018-02-06T08:11:35.934Z,-2.63
2018-02-06T08:14:05.171Z,-2.64
2018-02-06T08:16:34.527Z,-2.62
2018-02-06T08:19:03.801Z,-2.63
2018-02-06T08:21:33.098Z,-2.62
2018-02-06T08:24:02.323Z,-2.57
2018-02-06T08:26:31.531Z,-2.53
2018-02-06T08:29:00.762Z,-2.48
2018-02-06T08:31:29.994Z,-2.39
2018-02-06T08:33:59.491Z,-2.36
2018-02-06T08:36:28.734Z,-2.38
2018-02-06T08:38:58.016Z,-2.32
2018-02-06T08:41:27.226Z,-2.27
2018-02-06T08:43:57.286Z,-2.21
2018-02-06T08:46:26.603Z,-2.14
2018-02-06T08:48:55.838Z,-2.08
2018-02-06T08:51:25.055Z,-2.09
2018-02-06T08:53:55.106Z,-2.09
2018-02-06T08:56:24.325Z,-2.06
2018-02-06T08:58:53.619Z,-2.07
2018-02-06T09:01:22.928Z,-2.07
2018-02-06T09:03:52.204Z,-2.05
2018-02-06T09:06:21.413Z,-1.96
2018-02-06T09:08:50.646Z,-1.89
2018-02-06T09:11:19.897Z,-1.82
2018-02-06T09:13:49.105Z,-1.74
2018-02-06T09:16:18.337Z,-1.75
2018-02-06T09:18:48.345Z,-1.69
2018-02-06T09:21:17.579Z,-1.68
2018-02-06T09:23:46.820Z,-1.63
2018-02-06T09:26:16.055Z,-1.47
2018-02-06T09:28:45.335Z,-1.34
2018-02-06T09:31:16.141Z,-1.20
2018-02-06T09:33:45.670Z,-1.07
2018-02-06T09:36:14.891Z,-1.03
2018-02-06T09:38:44.134Z,-0.94
2018-02-06T09:41:13.463Z,-0.87
2018-02-06T09:43:42.719Z,-0.89
2018-02-06T09:46:11.937Z,-0.96
2018-02-06T09:48:41.182Z,-1.01
2018-02-06T09:51:11.959Z,-0.99
2018-02-06T09:53:41.331Z,-0.95
2018-02-06T09:56:10.549Z,-0.87
2018-02-06T09:58:40.573Z,-0.77
2018-02-06T10:01:09.828Z,-0.76
2018-02-06T10:03:39.062Z,-0.80
2018-02-06T10:06:08.319Z,-0.80
2018-02-06T10:08:37.633Z,-0.77
2018-02-06T10:11:06.831Z,-0.66
2018-02-06T10:13:36.090Z,-0.63
2018-02-06T10:16:05.350Z,-0.65
2018-02-06T10:18:34.586Z,-0.67
2018-02-06T10:21:03.831Z,-0.64
2018-02-06T10:23:33.163Z,-0.62
2018-02-06T10:26:02.394Z,-0.62
2018-02-06T10:28:31.667Z,-0.70
2018-02-06T10:31:00.951Z,-0.72
2018-02-06T10:33:30.136Z,-0.69
2018-02-06T10:36:00.134Z,-0.67
2018-02-06T10:38:29.360Z,-0.58
2018-02-06T10:40:58.613Z,-0.44
2018-02-06T10:43:27.883Z,-0.39
2018-02-06T10:45:57.166Z,-0.39
2018-02-06T10:48:26.415Z,-0.37
2018-02-06T10:50:55.638Z,-0.30
2018-02-06T10:53:25.609Z,-0.29
2018-02-06T10:55:54.856Z,-0.32
2018-02-06T10:58:24.074Z,-0.34
2018-02-06T11:00:53.330Z,-0.31
2018-02-06T11:03:22.525Z,-0.28
2018-02-06T11:05:51.869Z,-0.25
2018-02-06T11:08:21.875Z,-0.19
2018-02-06T11:10:51.200Z,-0.16
2018-02-06T11:13:20.498Z,-0.10
2018-02-06T11:15:49.720Z,0.02
2018-02-06T11:18:18.992Z,0.07
2018-02-06T11:20:48.965Z,0.16
2018-02-06T11:23:18.976Z,0.10
2018-02-06T11:25:48.178Z,0.09
2018-02-06T11:28:17.525Z,0.08
2018-02-06T11:30:46.843Z,0.13
2018-02-06T11:33:16.054Z,0.18
2018-02-06T11:35:45.280Z,0.18
2018-02-06T11:38:14.490Z,0.11
2018-02-06T11:40:44.478Z,0.08
2018-02-06T11:43:13.760Z,0.11
2018-02-06T11:45:42.979Z,0.12
2018-02-06T11:48:12.206Z,0.18
2018-02-06T11:50:41.484Z,0.23
2018-02-06T11:53:11.625Z,0.31
2018-02-06T11:55:40.856Z,0.39
2018-02-06T11:58:10.083Z,0.47
2018-02-06T12:00:39.318Z,0.44
2018-02-06T12:03:08.565Z,0.45
2018-02-06T12:05:37.782Z,0.50
2018-02-06T12:08:07.014Z,0.52
2018-02-06T12:10:36.248Z,0.47
2018-02-06T12:13:05.459Z,0.39
2018-02-06T12:15:35.587Z,0.31
2018-02-06T12:18:04.806Z,0.30
2018-02-06T12:20:34.782Z,0.29
2018-02-06T12:23:04.024Z,0.29
2018-02-06T12:25:33.301Z,0.34
2018-02-06T12:28:02.553Z,0.40
2018-02-06T12:30:31.762Z,0.43
2018-02-06T12:33:00.999Z,0.43
2018-02-06T12:35:30.249Z,0.44
2018-02-06T12:37:59.527Z,0.46
2018-02-06T12:40:29.835Z,0.51
2018-02-06T12:43:00.536Z,0.51
2018-02-06T12:45:29.733Z,0.56
2018-02-06T12:47:58.962Z,0.66
2018-02-06T12:50:28.326Z,0.67
2018-02-06T12:52:57.625Z,0.60
2018-02-06T12:55:26.849Z,0.62
2018-02-06T12:57:56.136Z,0.59
2018-02-06T13:00:25.437Z,0.52
2018-02-06T13:02:54.661Z,0.49
2018-02-06T13:05:24.691Z,0.51
2018-02-06T13:07:53.997Z,0.54
2018-02-06T13:10:23.221Z,0.54
2018-02-06T13:12:52.453Z,0.59
2018-02-06T13:15:21.957Z,0.66
2018-02-06T13:17:52.681Z,0.70
2018-02-06T13:20:22.762Z,0.75
2018-02-06T13:22:52.029Z,0.78
2018-02-06T13:25:22.035Z,0.76
2018-02-06T13:27:51.657Z,0.79
2018-02-06T13:30:20.906Z,0.80
2018-02-06T13:32:50.102Z,0.84
2018-02-06T13:35:19.351Z,0.84
2018-02-06T13:37:49.341Z,0.84
2018-02-06T13:40:18.834Z,0.90
2018-02-06T13:42:48.054Z,0.97
2018-02-06T13:45:17.288Z,1.04
2018-02-06T13:47:46.592Z,1.03
2018-02-06T13:50:16.523Z,1.02
2018-02-06T13:52:45.745Z,0.98
2018-02-06T13:55:14.990Z,0.94
2018-02-06T13:57:48.715Z,0.99
2018-02-06T14:00:17.964Z,1.08
2018-02-06T14:02:47.930Z,1.10
2018-02-06T14:05:17.166Z,1.08
2018-02-06T14:07:46.451Z,1.05
2018-02-06T14:10:15.725Z,1.00
2018-02-06T14:12:45.682Z,0.92
2018-02-06T14:15:14.936Z,0.92
2018-02-06T14:17:44.152Z,0.91
2018-02-06T14:20:13.399Z,0.91
2018-02-06T14:22:43.433Z,0.93
2018-02-06T14:25:12.663Z,0.98
2018-02-06T14:27:41.883Z,1.00
2018-02-06T14:30:11.958Z,1.00
2018-02-06T14:32:41.179Z,1.01
2018-02-06T14:35:10.390Z,1.06
2018-02-06T14:37:41.115Z,1.09
2018-02-06T14:40:10.322Z,1.10
2018-02-06T14:42:39.596Z,1.06
2018-02-06T14:45:08.887Z,1.07
2018-02-06T14:47:38.130Z,1.11
2018-02-06T14:50:07.319Z,1.12
2018-02-06T14:52:37.317Z,1.10
2018-02-06T14:55:06.536Z,1.17
2018-02-06T14:57:35.746Z,1.23
2018-02-06T15:00:05.740Z,1.25
2018-02-06T15:02:35.131Z,1.31
2018-02-06T15:05:04.344Z,1.28
2018-02-06T15:07:33.555Z,1.29
2018-02-06T15:10:02.796Z,1.21
2018-02-06T15:12:32.065Z,1.15
2018-02-06T15:15:02.073Z,1.17
2018-02-06T15:17:32.103Z,1.17
2018-02-06T15:20:01.310Z,1.16
2018-02-06T15:22:30.517Z,1.17
2018-02-06T15:24:59.917Z,1.21
2018-02-06T15:27:29.116Z,1.28
2018-02-06T15:29:58.354Z,1.30
2018-02-06T15:32:27.559Z,1.31
2018-02-06T15:34:56.772Z,1.30
2018-02-06T15:37:26.828Z,1.27
2018-02-06T15:39:56.051Z,1.27
2018-02-06T15:42:25.319Z,1.26
2018-02-06T15:44:55.285Z,1.24
2018-02-06T15:47:24.618Z,1.20
2018-02-06T15:49:53.834Z,1.19
2018-02-06T15:52:23.138Z,1.14
2018-02-06T15:54:52.331Z,1.17
2018-02-06T15:57:21.556Z,1.18
2018-02-06T15:59:50.777Z,1.15
2018-02-06T16:02:19.999Z,1.18
2018-02-06T16:04:50.132Z,1.15
2018-02-06T16:07:19.360Z,1.14
2018-02-06T16:09:48.578Z,1.13
2018-02-06T16:12:17.831Z,1.09
2018-02-06T16:14:47.199Z,1.09
2018-02-06T16:17:17.247Z,1.06
2018-02-06T16:19:46.460Z,1.03
2018-02-06T16:22:15.735Z,1.01
2018-02-06T16:24:45.784Z,1.00
2018-02-06T16:27:15.016Z,1.00
2018-02-06T16:29:44.258Z,1.00
2018-02-06T16:32:13.558Z,1.01
2018-02-06T16:34:42.811Z,1.00
2018-02-06T16:37:12.040Z,0.98
2018-02-06T16:39:41.259Z,0.97
2018-02-06T16:42:10.458Z,1.00
2018-02-06T16:44:40.636Z,0.97
2018-02-06T16:47:10.636Z,1.02
2018-02-06T16:49:39.917Z,1.06
2018-02-06T16:52:09.157Z,1.07
2018-02-06T16:54:39.178Z,1.04
2018-02-06T16:57:09.172Z,1.04
2018-02-06T16:59:38.390Z,1.03
2018-02-06T17:02:08.348Z,1.01
2018-02-06T17:04:37.579Z,1.01
2018-02-06T17:07:06.775Z,1.02
2018-02-06T17:09:35.994Z,1.01
2018-02-06T17:12:05.284Z,1.04
2018-02-06T17:14:35.334Z,1.08
2018-02-06T17:17:05.333Z,1.01
2018-02-06T17:19:35.326Z,1.00
2018-02-06T17:22:04.624Z,0.99
2018-02-06T17:24:33.859Z,0.97
2018-02-06T17:27:03.847Z,0.95
2018-02-06T17:29:33.883Z,0.98
2018-02-06T17:32:03.208Z,1.03
2018-02-06T17:34:32.582Z,1.03
2018-02-06T17:37:01.990Z,1.03
2018-02-06T17:39:31.426Z,1.04
2018-02-06T17:42:00.635Z,1.00
2018-02-06T17:44:29.881Z,1.01
2018-02-06T17:46:59.854Z,1.00
2018-02-06T17:49:30.000Z,0.99
2018-02-06T17:51:59.360Z,0.97
2018-02-06T17:54:28.586Z,0.96
2018-02-06T17:56:57.810Z,0.97
2018-02-06T17:59:27.811Z,0.95
2018-02-06T18:01:57.046Z,0.94
2018-02-06T18:04:26.279Z,0.96
2018-02-06T18:06:55.511Z,0.93
2018-02-06T18:09:25.840Z,0.94
2018-02-06T18:11:55.834Z,0.96
2018-02-06T18:14:25.998Z,0.94
2018-02-06T18:16:55.223Z,0.98
2018-02-06T18:19:24.492Z,0.98
2018-02-06T18:21:54.482Z,0.96
2018-02-06T18:24:23.702Z,0.99
2018-02-06T18:26:52.944Z,1.01
2018-02-06T18:29:22.275Z,0.96
2018-02-06T18:31:51.676Z,0.94
2018-02-06T18:34:20.871Z,0.95
2018-02-06T18:36:50.883Z,0.96
2018-02-06T18:39:20.103Z,0.97
2018-02-06T18:41:49.353Z,0.99
2018-02-06T18:44:18.572Z,0.91
2018-02-06T18:46:48.085Z,0.91
2018-02-06T18:49:17.317Z,0.88
2018-02-06T18:51:47.387Z,0.83
2018-02-06T18:54:16.602Z,0.83
2018-02-06T18:56:46.603Z,0.88
2018-02-06T18:59:15.849Z,0.91
2018-02-06T19:01:45.804Z,0.90
2018-02-06T19:04:15.041Z,0.94
2018-02-06T19:06:44.534Z,0.93
2018-02-06T19:09:13.755Z,0.95
2018-02-06T19:11:42.967Z,0.93
2018-02-06T19:14:12.327Z,1.00
2018-02-06T19:16:41.552Z,1.03
2018-02-06T19:19:11.553Z,0.99
2018-02-06T19:21:40.767Z,0.99
2018-02-06T19:24:10.028Z,0.98
2018-02-06T19:26:39.255Z,0.94
2018-02-06T19:29:09.375Z,0.91
2018-02-06T19:31:38.628Z,0.88
2018-02-06T19:34:07.858Z,0.90
2018-02-06T19:36:38.017Z,0.89
2018-02-06T19:39:07.241Z,0.89
2018-02-06T19:41:36.467Z,0.85
2018-02-06T19:44:05.743Z,0.86
2018-02-06T19:46:34.982Z,0.88
2018-02-06T19:49:04.216Z,0.87
2018-02-06T19:51:33.535Z,0.82
2018-02-06T19:54:02.754Z,0.84
2018-02-06T19:56:33.499Z,0.86
2018-02-06T19:59:02.825Z,0.86
2018-02-06T20:01:32.226Z,0.90
2018-02-06T20:04:01.477Z,0.93
2018-02-06T20:06:30.675Z,0.94
2018-02-06T20:08:59.876Z,0.91
2018-02-06T20:11:29.097Z,0.92
2018-02-06T20:13:59.164Z,0.92
2018-02-06T20:16:28.454Z,0.98
2018-02-06T20:18:57.712Z,0.96
2018-02-06T20:21:27.708Z,1.01
2018-02-06T20:23:57.100Z,1.01
2018-02-06T20:26:26.444Z,0.98
2018-02-06T20:28:56.564Z,1.02
2018-02-06T20:31:25.771Z,1.02
2018-02-06T20:33:55.046Z,0.97
2018-02-06T20:36:24.298Z,1.04
2018-02-06T20:38:53.534Z,0.99
2018-02-06T20:41:22.790Z,0.95
2018-02-06T20:43:53.896Z,0.92
2018-02-06T20:46:26.357Z,0.90
2018-02-06T20:48:56.391Z,0.87
2018-02-06T20:51:26.521Z,0.90
2018-02-06T20:53:55.742Z,0.89
2018-02-06T20:56:24.997Z,0.88
2018-02-06T20:58:54.231Z,0.91
2018-02-06T21:01:23.568Z,0.95
2018-02-06T21:03:52.789Z,0.91
2018-02-06T21:06:22.796Z,0.91
2018-02-06T21:08:52.031Z,0.93
2018-02-06T21:11:21.252Z,0.96
2018-02-06T21:13:50.487Z,0.92
2018-02-06T21:16:19.838Z,0.87
2018-02-06T21:18:49.035Z,0.89
2018-02-06T21:21:18.259Z,0.89
2018-02-06T21:23:48.986Z,0.92
2018-02-06T21:26:18.398Z,0.91
2018-02-06T21:28:47.683Z,0.92
2018-02-06T21:31:16.933Z,0.88
2018-02-06T21:33:46.190Z,0.89
2018-02-06T21:36:15.488Z,0.89
2018-02-06T21:38:44.710Z,0.92
2018-02-06T21:41:13.909Z,0.89
2018-02-06T21:43:43.912Z,0.88
2018-02-06T21:46:13.941Z,0.84
2018-02-06T21:48:43.167Z,0.81
2018-02-06T21:51:12.552Z,0.86
2018-02-06T21:53:42.593Z,0.87
2018-02-06T21:56:11.797Z,0.90
2018-02-06T21:58:41.030Z,0.93
2018-02-06T22:01:10.294Z,0.89
2018-02-06T22:03:39.502Z,0.86
2018-02-06T22:06:08.742Z,0.85
2018-02-06T22:08:38.756Z,0.85
2018-02-06T22:11:07.990Z,0.82
2018-02-06T22:13:38.013Z,0.84
2018-02-06T22:16:07.244Z,0.84
2018-02-06T22:18:38.134Z,0.86
2018-02-06T22:21:07.348Z,0.84
2018-02-06T22:23:36.567Z,0.80
2018-02-06T22:26:05.798Z,0.80
2018-02-06T22:28:35.000Z,0.77
2018-02-06T22:31:04.267Z,0.79
2018-02-06T22:33:33.468Z,0.85
2018-02-06T22:36:02.702Z,0.87
2018-02-06T22:38:32.001Z,0.90
2018-02-06T22:41:01.986Z,0.89
2018-02-06T22:43:31.190Z,0.89
2018-02-06T22:46:01.182Z,0.85
2018-02-06T22:48:30.398Z,0.83
2018-02-06T22:51:00.628Z,0.79
2018-02-06T22:53:29.844Z,0.75
2018-02-06T22:55:59.839Z,0.73
2018-02-06T22:58:29.034Z,0.71
2018-02-06T23:00:59.051Z,0.73
2018-02-06T23:03:28.342Z,0.74
2018-02-06T23:05:57.587Z,0.72
2018-02-06T23:08:27.023Z,0.73
2018-02-06T23:10:56.228Z,0.69
2018-02-06T23:13:25.446Z,0.64
2018-02-06T23:15:54.671Z,0.63
2018-02-06T23:18:24.671Z,0.68
2018-02-06T23:20:53.903Z,0.71
2018-02-06T23:23:23.887Z,0.69
2018-02-06T23:25:53.897Z,0.74
2018-02-06T23:28:24.735Z,0.73
2018-02-06T23:30:56.550Z,0.75
2018-02-06T23:33:25.779Z,0.76
2018-02-06T23:35:55.280Z,0.76
2018-02-06T23:38:24.512Z,0.76
2018-02-06T23:40:54.894Z,0.77
2018-02-06T23:43:24.135Z,0.72
2018-02-06T23:45:54.135Z,0.74
2018-02-06T23:48:23.346Z,0.76
2018-02-06T23:50:53.351Z,0.79
2018-02-06T23:53:22.673Z,0.87
2018-02-06T23:55:51.887Z,0.89
2018-02-06T23:58:21.115Z,0.88
